Bridgeport, CT (06699)

8:59 AM EDT on August 28, 2015 (GMT -0400)
Brewer Stratford Marina | | Change Station
CLOSE
Current Station
Personal Weather Station
Location: Stratford, CT
Elevation: 20 ft
Nearby Weather Stations

Elev 20 ft 41.18 °N, 73.13 °W | Updated 14 seconds ago

Clear
Clear
67.8 °F
Feels Like 67.8 °F
N
5.0
Wind Variable Wind from NNE
Gusts 5.0 mph

Today
High -- | Low -- °F
--% Chance of Precip.
Yesterday
High -- | Low -- °F
Precip. -- in
6:14 AM 7:32 PM
Waxing Gibbous, 98% visible
Pressure 30.16 in
Visibility 10.0 miles
Clouds Clear
Dew Point 55 °F
Humidity 63%
Rainfall 0.00 in
Snow Depth Not available.
UV 3 out of 12
Pollen 9.70 out of 12
Air Quality Not available.
Flu Activity Not available.
METAR KBDR 281252Z 34007KT 10SM CLR 21/13 A3016 RMK AO2 SLP213 T02110128
Pressure 30.16 in
Visibility 10.0 miles
Clouds Clear
Dew Point 55 °F
Humidity 63%
Rainfall 0.00 in
Snow Depth Not available.
UV 3 out of 12
Pollen 9.70 out of 12
Air Quality Not available.
Flu Activity Not available.
METAR KBDR 281252Z 34007KT 10SM CLR 21/13 A3016 RMK AO2 SLP213 T02110128

10-Day Weather Forecast

×

Almanac

Astronomy

Aug. 28, 2015 Rise Set
Actual Time
Civil Twilight
Nautical Twilight
Astronomical Twilight
Moon
Length of Visible Light
Length of Day
Tomorrow will be .
, % of the Moon is Illuminated

Today's Extremes

State Highs State Lows

Community

WunderPhotos

Upload Photos

1,850,373 photos uploaded!

WunderBlogs® & News

Nearby

Air Quality

  Air Quality AQ Index Pollutant
Not available.

Snow Depth

Station Depth Elevation

Earthquake Activity

City Distance Mag. Time & Date
Minimum magnitude displayed is 2.5.

Coastal Water Temperatures

Place Temperature

Stations

Nearby Weather Stations

Station Location Temp. Windchill Dew Point Humidity Wind Precip. Elev Updated Type